createdAt,value
2019-02-25T00:00:57.570Z,51.88
2019-02-25T00:03:45.094Z,51.88
2019-02-25T00:06:32.419Z,51.83
2019-02-25T00:09:19.840Z,51.55
2019-02-25T00:12:06.825Z,51.53
2019-02-25T00:14:54.179Z,51.42
2019-02-25T00:17:41.894Z,51.44
2019-02-25T00:20:28.698Z,53.59
2019-02-25T00:23:15.605Z,52.57
2019-02-25T00:26:02.442Z,52.44
2019-02-25T00:28:49.866Z,51.76
2019-02-25T00:31:37.292Z,52.08
2019-02-25T00:34:24.895Z,52.19
2019-02-25T00:37:12.546Z,51.82
2019-02-25T00:39:59.456Z,51.74
2019-02-25T00:42:47.086Z,51.74
2019-02-25T00:45:34.407Z,51.37
2019-02-25T00:48:21.834Z,51.68
2019-02-25T00:51:09.357Z,51.89
2019-02-25T00:53:56.987Z,55.33
2019-02-25T00:56:44.409Z,56.15
2019-02-25T00:59:31.935Z,55.60
2019-02-25T01:02:19.771Z,54.00
2019-02-25T01:05:08.117Z,53.18
2019-02-25T01:07:55.235Z,53.36
2019-02-25T01:10:42.453Z,53.45
2019-02-25T01:13:30.083Z,53.14
2019-02-25T01:16:17.609Z,53.14
2019-02-25T01:19:05.339Z,53.37
2019-02-25T01:21:52.661Z,53.03
2019-02-25T01:24:39.985Z,52.62
2019-02-25T01:27:27.305Z,52.37
2019-02-25T01:30:19.541Z,52.77
2019-02-25T01:33:07.173Z,53.32
2019-02-25T01:35:54.081Z,52.90
2019-02-25T01:38:41.510Z,52.58
2019-02-25T01:41:28.930Z,52.40
2019-02-25T01:44:16.459Z,52.41
2019-02-25T01:47:04.391Z,54.04
2019-02-25T01:49:52.024Z,53.52
2019-02-25T01:52:39.547Z,53.34
2019-02-25T01:55:27.893Z,52.89
2019-02-25T01:58:15.316Z,52.86
2019-02-25T02:01:02.641Z,53.17
2019-02-25T02:03:49.755Z,53.35
2019-02-25T02:06:37.284Z,53.43
2019-02-25T02:09:24.706Z,53.29
2019-02-25T02:12:12.234Z,53.23
2019-02-25T02:14:59.454Z,52.92
2019-02-25T02:17:47.291Z,52.72
2019-02-25T02:20:34.812Z,52.66
2019-02-25T02:23:21.930Z,52.79
2019-02-25T02:26:10.277Z,52.65
2019-02-25T02:28:58.012Z,52.94
2019-02-25T02:31:45.640Z,52.62
2019-02-25T02:34:33.267Z,52.58
2019-02-25T02:37:20.900Z,52.76
2019-02-25T02:40:12.823Z,52.90
2019-02-25T02:43:01.479Z,52.48
2019-02-25T02:45:52.144Z,52.97
2019-02-25T02:48:45.743Z,52.67
2019-02-25T02:51:33.177Z,52.23
2019-02-25T02:54:20.901Z,52.29
2019-02-25T02:57:08.325Z,52.39
2019-02-25T02:59:55.647Z,52.23
2019-02-25T03:02:43.070Z,52.12
2019-02-25T03:05:30.190Z,52.14
2019-02-25T03:08:17.511Z,51.83
2019-02-25T03:11:05.139Z,51.52
2019-02-25T03:13:52.560Z,51.59
2019-02-25T03:16:40.293Z,51.65
2019-02-25T03:19:27.722Z,51.67
2019-02-25T03:22:15.140Z,51.71
2019-02-25T03:25:02.770Z,51.47
2019-02-25T03:27:50.608Z,51.39
2019-02-25T03:30:38.034Z,51.54
2019-02-25T03:33:25.247Z,51.68
2019-02-25T03:36:13.080Z,51.95
2019-02-25T03:39:00.402Z,52.02
2019-02-25T03:41:47.833Z,51.96
2019-02-25T03:44:35.147Z,52.13
2019-02-25T03:47:23.082Z,51.92
2019-02-25T03:50:10.958Z,51.95
2019-02-25T03:52:58.577Z,53.70
2019-02-25T03:55:46.382Z,54.01
2019-02-25T03:58:34.112Z,53.34
2019-02-25T04:01:21.537Z,52.69
2019-02-25T04:04:08.753Z,52.46
2019-02-25T04:06:56.690Z,52.33
2019-02-25T04:09:44.420Z,52.19
2019-02-25T04:12:31.640Z,52.27
2019-02-25T04:15:21.791Z,52.25
2019-02-25T04:18:09.459Z,51.77
2019-02-25T04:20:57.497Z,51.76
2019-02-25T04:23:44.719Z,51.87
2019-02-25T04:26:32.146Z,52.26
2019-02-25T04:29:19.776Z,54.31
2019-02-25T04:32:07.499Z,53.16
2019-02-25T04:34:54.929Z,52.29
2019-02-25T04:37:42.869Z,52.59
2019-02-25T04:40:30.183Z,52.45
2019-02-25T04:43:17.932Z,52.01
2019-02-25T04:46:05.746Z,51.60
2019-02-25T04:48:53.480Z,51.39
2019-02-25T04:51:40.699Z,51.34
2019-02-25T04:54:28.226Z,51.30
2019-02-25T04:57:15.754Z,51.23
2019-02-25T05:00:03.278Z,50.97
2019-02-25T05:02:50.467Z,51.72
2019-02-25T05:05:38.125Z,51.83
2019-02-25T05:08:25.866Z,51.61
2019-02-25T05:11:13.386Z,51.38
2019-02-25T05:14:00.816Z,51.66
2019-02-25T05:16:48.353Z,51.59
2019-02-25T05:19:36.167Z,51.64
2019-02-25T05:22:23.288Z,51.72
2019-02-25T05:25:12.435Z,51.96
2019-02-25T05:27:59.770Z,51.81
2019-02-25T05:30:47.024Z,51.83
2019-02-25T05:33:34.618Z,51.73
2019-02-25T05:36:22.041Z,51.67
2019-02-25T05:39:09.676Z,52.36
2019-02-25T05:41:57.174Z,52.76
2019-02-25T05:44:44.417Z,52.21
2019-02-25T05:47:31.739Z,51.97
2019-02-25T05:52:56.039Z,52.04
2019-02-25T05:55:43.463Z,52.02
2019-02-25T05:58:30.990Z,51.77
2019-02-25T06:01:18.415Z,51.74
2019-02-25T06:04:06.049Z,51.86
2019-02-25T06:06:53.466Z,52.27
2019-02-25T06:09:41.199Z,52.54
2019-02-25T06:12:28.826Z,52.80
2019-02-25T06:15:23.113Z,52.79
2019-02-25T06:18:10.740Z,52.80
2019-02-25T06:20:58.166Z,52.91
2019-02-25T06:23:45.281Z,53.01
2019-02-25T06:26:32.580Z,52.91
2019-02-25T06:29:20.075Z,52.86
2019-02-25T06:32:07.701Z,53.04
2019-02-25T06:34:54.982Z,53.41
2019-02-25T06:37:42.811Z,53.03
2019-02-25T06:40:30.133Z,52.73
2019-02-25T06:43:17.564Z,53.63
2019-02-25T06:46:04.775Z,55.47
2019-02-25T06:48:52.305Z,54.97
2019-02-25T06:51:39.726Z,54.25
2019-02-25T06:54:27.151Z,54.17
2019-02-25T06:57:14.787Z,53.65
2019-02-25T07:00:03.243Z,53.33
2019-02-25T07:02:50.962Z,53.26
2019-02-25T07:05:49.238Z,53.13
2019-02-25T07:08:53.355Z,53.30
2019-02-25T07:11:45.282Z,53.43
2019-02-25T07:14:37.584Z,53.52
2019-02-25T07:17:35.795Z,53.47
2019-02-25T07:20:24.659Z,53.48
2019-02-25T07:23:13.922Z,53.09
2019-02-25T07:26:08.616Z,53.14
2019-02-25T07:29:06.534Z,52.90
2019-02-25T07:32:04.663Z,52.48
2019-02-25T07:34:59.560Z,51.99
2019-02-25T07:37:48.246Z,51.73
2019-02-25T07:40:40.039Z,51.61
2019-02-25T07:43:29.615Z,51.10
2019-02-25T07:46:18.677Z,49.82
2019-02-25T07:49:23.821Z,48.86
2019-02-25T07:52:28.750Z,48.64
2019-02-25T07:55:34.299Z,48.65
2019-02-25T07:58:23.260Z,48.29
2019-02-25T08:01:12.423Z,47.62
2019-02-25T08:04:01.383Z,47.07
2019-02-25T08:06:53.328Z,46.34
2019-02-25T08:09:58.656Z,45.53
2019-02-25T08:12:50.794Z,44.99
2019-02-25T08:15:54.701Z,43.96
2019-02-25T08:18:43.410Z,44.28
2019-02-25T08:21:50.651Z,44.21
2019-02-25T08:24:51.197Z,43.61
2019-02-25T08:31:09.251Z,43.54
2019-02-25T08:33:58.813Z,42.22
2019-02-25T08:37:11.635Z,42.30
2019-02-25T08:40:31.209Z,41.82
2019-02-25T08:43:37.147Z,41.41
2019-02-25T08:46:26.336Z,40.94
2019-02-25T08:49:15.805Z,41.17
2019-02-25T08:52:03.132Z,39.54
2019-02-25T08:54:50.857Z,39.64
2019-02-25T08:57:38.587Z,39.46
2019-02-25T09:00:26.215Z,39.14
2019-02-25T09:03:13.540Z,37.51
2019-02-25T09:06:01.068Z,37.50
2019-02-25T09:08:48.899Z,37.28
2019-02-25T09:11:36.534Z,36.71
2019-02-25T09:14:24.263Z,37.19
2019-02-25T09:17:11.580Z,35.67
2019-02-25T09:19:59.107Z,34.51
2019-02-25T09:22:46.839Z,34.40
2019-02-25T09:25:34.673Z,34.87
2019-02-25T09:28:21.892Z,34.31
2019-02-25T09:31:09.726Z,33.80
2019-02-25T09:33:57.147Z,34.77
2019-02-25T09:36:44.469Z,33.07
2019-02-25T09:39:31.892Z,33.08
2019-02-25T09:42:19.521Z,33.58
2019-02-25T09:45:10.260Z,33.36
2019-02-25T09:47:57.753Z,32.50
2019-02-25T09:50:45.482Z,32.62
2019-02-25T09:53:33.112Z,32.17
2019-02-25T09:56:20.533Z,32.19
2019-02-25T09:59:08.264Z,31.57
2019-02-25T10:01:55.689Z,31.82
2019-02-25T10:04:43.322Z,31.49
2019-02-25T10:07:30.672Z,31.21
2019-02-25T10:10:19.240Z,30.92
2019-02-25T10:13:06.922Z,30.32
2019-02-25T10:15:54.550Z,30.53
2019-02-25T10:18:42.183Z,30.53
2019-02-25T10:21:29.830Z,29.79
2019-02-25T10:24:17.334Z,29.67
2019-02-25T10:27:04.759Z,28.74
2019-02-25T10:29:52.086Z,27.88
2019-02-25T10:32:39.506Z,27.53
2019-02-25T10:35:28.674Z,26.86
2019-02-25T10:38:15.989Z,27.51
2019-02-25T10:41:04.132Z,27.75
2019-02-25T10:43:51.247Z,27.50
2019-02-25T10:46:40.843Z,25.03
2019-02-25T10:49:29.365Z,25.03
2019-02-25T10:52:17.453Z,23.92
2019-02-25T10:55:08.420Z,23.60
2019-02-25T10:57:57.638Z,23.38
2019-02-25T11:00:46.075Z,23.34
2019-02-25T11:03:34.073Z,24.00
2019-02-25T11:06:21.601Z,23.79
2019-02-25T11:09:13.400Z,23.68
2019-02-25T11:12:02.079Z,23.60
2019-02-25T11:14:49.764Z,22.61
2019-02-25T11:17:37.647Z,22.18
2019-02-25T11:20:24.775Z,22.86
2019-02-25T11:23:14.721Z,22.72
2019-02-25T11:26:02.195Z,22.78
2019-02-25T11:28:49.964Z,22.81
2019-02-25T11:31:38.041Z,22.99
2019-02-25T11:34:26.799Z,22.90
2019-02-25T11:37:16.615Z,23.41
2019-02-25T11:40:06.186Z,23.44
2019-02-25T11:42:54.088Z,23.85
2019-02-25T11:45:41.612Z,23.95
2019-02-25T11:48:28.935Z,24.36
2019-02-25T11:51:16.462Z,24.38
2019-02-25T11:54:03.783Z,22.60
2019-02-25T11:56:51.309Z,24.29
2019-02-25T11:59:38.733Z,24.03
2019-02-25T12:02:26.282Z,23.71
2019-02-25T12:05:15.355Z,23.32
2019-02-25T12:08:02.952Z,23.43
2019-02-25T12:10:50.280Z,23.24
2019-02-25T12:13:37.800Z,23.25
2019-02-25T12:16:25.224Z,23.48
2019-02-25T12:19:17.982Z,23.84
2019-02-25T12:22:01.609Z,24.31
2019-02-25T12:24:49.543Z,24.02
2019-02-25T12:27:37.072Z,24.39
2019-02-25T12:30:25.618Z,24.22
2019-02-25T12:33:12.844Z,24.07
2019-02-25T12:36:00.776Z,24.59
2019-02-25T12:38:48.101Z,24.68
2019-02-25T12:41:35.525Z,24.77
2019-02-25T12:44:22.945Z,24.17
2019-02-25T12:47:10.581Z,25.02
2019-02-25T12:49:58.104Z,24.60
2019-02-25T12:52:45.452Z,24.43
2019-02-25T12:55:33.259Z,24.01
2019-02-25T12:58:21.096Z,23.99
2019-02-25T13:01:08.726Z,22.91
2019-02-25T13:03:56.351Z,23.17
2019-02-25T13:06:43.776Z,22.27
2019-02-25T13:09:31.096Z,22.59
2019-02-25T13:12:18.520Z,23.46
2019-02-25T13:15:13.261Z,22.28
2019-02-25T13:18:00.153Z,23.34
2019-02-25T13:20:47.758Z,22.89
2019-02-25T13:23:35.595Z,23.73
2019-02-25T13:26:23.425Z,23.38
2019-02-25T13:29:10.847Z,21.71
2019-02-25T13:31:58.581Z,23.50
2019-02-25T13:34:46.002Z,23.75
2019-02-25T13:37:33.327Z,22.95
2019-02-25T13:40:20.953Z,24.31
2019-02-25T13:43:08.695Z,23.60
2019-02-25T13:45:56.416Z,23.37
2019-02-25T13:48:44.046Z,23.47
2019-02-25T13:51:31.265Z,24.66
2019-02-25T13:54:18.587Z,24.62
2019-02-25T13:57:06.010Z,24.88
2019-02-25T13:59:53.845Z,25.33
2019-02-25T14:02:41.270Z,24.51
2019-02-25T14:05:29.002Z,23.98
2019-02-25T14:08:16.479Z,25.23
2019-02-25T14:11:04.673Z,25.70
2019-02-25T14:13:51.990Z,26.33
2019-02-25T14:16:39.209Z,25.66
2019-02-25T14:19:26.944Z,25.62
2019-02-25T14:22:16.551Z,25.43
2019-02-25T14:25:04.761Z,25.89
2019-02-25T14:27:52.186Z,25.93
2019-02-25T14:30:40.223Z,25.28
2019-02-25T14:33:27.955Z,25.69
2019-02-25T14:36:15.684Z,25.53
2019-02-25T14:39:04.622Z,25.16
2019-02-25T14:41:54.417Z,25.37
2019-02-25T14:44:43.956Z,25.63
2019-02-25T14:47:36.695Z,25.29
2019-02-25T14:50:21.434Z,25.18
2019-02-25T14:53:11.374Z,25.23
2019-02-25T14:56:02.950Z,25.20
2019-02-25T14:58:47.779Z,25.24
2019-02-25T15:01:35.511Z,25.16
2019-02-25T15:04:22.830Z,25.49
2019-02-25T15:07:10.866Z,25.09
2019-02-25T15:10:00.153Z,25.21
2019-02-25T15:12:48.483Z,25.24
2019-02-25T15:15:37.088Z,25.47
2019-02-25T15:18:27.039Z,25.50
2019-02-25T15:21:16.002Z,25.40
2019-02-25T15:24:04.659Z,25.72
2019-02-25T15:26:52.977Z,25.74
2019-02-25T15:29:42.345Z,25.87
2019-02-25T15:32:31.470Z,25.73
2019-02-25T15:35:19.070Z,25.58
2019-02-25T15:38:06.659Z,25.49
2019-02-25T15:40:55.864Z,26.02
2019-02-25T15:43:42.848Z,26.21
2019-02-25T15:46:30.577Z,26.53
2019-02-25T15:49:19.724Z,27.08
2019-02-25T15:52:07.167Z,27.64
2019-02-25T15:54:54.494Z,27.68
2019-02-25T15:57:42.910Z,28.09
2019-02-25T16:00:34.536Z,29.07
2019-02-25T16:03:21.579Z,29.95
2019-02-25T16:06:10.576Z,30.02
2019-02-25T16:08:58.777Z,30.41
2019-02-25T16:11:47.462Z,30.85
2019-02-25T16:14:35.266Z,30.77
2019-02-25T16:17:24.393Z,30.51
2019-02-25T16:20:14.212Z,30.83
2019-02-25T16:23:05.195Z,31.61
2019-02-25T16:25:53.160Z,31.94
2019-02-25T16:28:40.580Z,32.14
2019-02-25T16:31:29.171Z,32.76
2019-02-25T16:34:18.523Z,33.46
2019-02-25T16:37:06.539Z,34.01
2019-02-25T16:39:55.592Z,34.07
2019-02-25T16:42:44.367Z,34.35
2019-02-25T16:45:35.052Z,34.83
2019-02-25T16:48:24.285Z,35.33
2019-02-25T16:51:12.483Z,35.61
2019-02-25T16:53:59.012Z,35.99
2019-02-25T16:56:49.927Z,36.53
2019-02-25T16:59:37.816Z,36.67
2019-02-25T17:02:27.501Z,36.99
2019-02-25T17:05:14.731Z,37.46
2019-02-25T17:08:05.276Z,37.63
2019-02-25T17:10:53.944Z,37.90
2019-02-25T17:13:42.209Z,38.06
2019-02-25T17:16:29.546Z,37.68
2019-02-25T17:19:17.160Z,37.93
2019-02-25T17:22:05.250Z,38.43
2019-02-25T17:24:54.366Z,38.40
2019-02-25T17:27:42.193Z,38.46
2019-02-25T17:30:29.723Z,38.58
2019-02-25T17:33:17.186Z,38.70
2019-02-25T17:36:07.612Z,38.91
2019-02-25T17:38:55.371Z,39.05
2019-02-25T17:41:44.799Z,39.03
2019-02-25T17:44:34.341Z,39.45
2019-02-25T17:47:24.341Z,39.73
2019-02-25T17:50:13.613Z,39.95
2019-02-25T17:53:03.029Z,40.36
2019-02-25T17:55:51.200Z,42.62
2019-02-25T17:58:40.308Z,42.91
2019-02-25T18:01:28.514Z,42.25
2019-02-25T18:04:28.209Z,42.38
2019-02-25T18:07:16.459Z,42.55
2019-02-25T18:10:07.742Z,42.79
2019-02-25T18:12:56.922Z,42.97
2019-02-25T18:15:47.031Z,42.96
2019-02-25T18:18:36.661Z,42.70
2019-02-25T18:21:23.292Z,42.84
2019-02-25T18:24:12.516Z,42.95
2019-02-25T18:27:01.947Z,42.97
2019-02-25T18:29:52.799Z,42.97
2019-02-25T18:32:39.953Z,43.22
2019-02-25T18:35:27.887Z,43.20
2019-02-25T18:38:15.515Z,43.38
2019-02-25T18:41:04.748Z,43.25
2019-02-25T18:43:53.560Z,43.40
2019-02-25T18:46:42.463Z,43.85
2019-02-25T18:49:32.539Z,44.02
2019-02-25T18:52:20.011Z,43.84
2019-02-25T18:55:11.241Z,43.73
2019-02-25T18:57:58.445Z,43.85
2019-02-25T19:00:47.221Z,44.18
2019-02-25T19:03:35.513Z,44.44
2019-02-25T19:06:25.149Z,44.58
2019-02-25T19:09:20.593Z,44.79
2019-02-25T19:12:07.444Z,44.74
2019-02-25T19:14:55.753Z,45.20
2019-02-25T19:17:45.759Z,45.24
2019-02-25T19:20:34.798Z,45.16
2019-02-25T19:23:22.571Z,45.31
2019-02-25T19:26:12.374Z,45.32
2019-02-25T19:28:59.177Z,45.52
2019-02-25T19:31:47.196Z,46.00
2019-02-25T19:34:34.485Z,46.03
2019-02-25T19:37:23.681Z,46.13
2019-02-25T19:40:16.900Z,45.96
2019-02-25T19:43:06.046Z,46.05
2019-02-25T19:45:57.073Z,46.47
2019-02-25T19:48:45.222Z,46.48
2019-02-25T19:51:32.590Z,46.33
2019-02-25T19:54:20.532Z,46.36
2019-02-25T19:57:08.148Z,46.27
2019-02-25T19:59:57.822Z,46.73
2019-02-25T20:02:44.937Z,47.04
2019-02-25T20:05:33.899Z,46.82
2019-02-25T20:08:21.219Z,46.68
2019-02-25T20:11:09.632Z,46.65
2019-02-25T20:14:00.954Z,47.01
2019-02-25T20:16:46.809Z,47.37
2019-02-25T20:19:34.501Z,47.64
2019-02-25T20:22:22.031Z,47.24
2019-02-25T20:25:12.629Z,47.26
2019-02-25T20:28:02.529Z,47.81
2019-02-25T20:30:51.629Z,48.12
2019-02-25T20:33:39.237Z,48.33
2019-02-25T20:36:28.470Z,49.04
2019-02-25T20:39:17.008Z,49.10
2019-02-25T20:42:04.347Z,48.96
2019-02-25T20:44:53.451Z,48.00
2019-02-25T20:47:41.139Z,49.03
2019-02-25T20:50:29.079Z,49.82
2019-02-25T20:53:16.192Z,49.64
2019-02-25T20:56:03.926Z,48.60
2019-02-25T20:58:51.566Z,49.08
2019-02-25T21:01:42.296Z,49.38
2019-02-25T21:04:28.474Z,49.31
2019-02-25T21:07:15.982Z,49.31
2019-02-25T21:10:07.507Z,49.14
2019-02-25T21:12:56.872Z,49.35
2019-02-25T21:15:45.406Z,49.19
2019-02-25T21:18:32.947Z,50.67
2019-02-25T21:21:20.575Z,50.55
2019-02-25T21:24:09.636Z,50.43
2019-02-25T21:26:59.615Z,50.95
2019-02-25T21:29:46.430Z,51.14
2019-02-25T21:32:33.853Z,51.11
2019-02-25T21:35:25.451Z,50.14
2019-02-25T21:38:11.162Z,50.79
2019-02-25T21:40:58.583Z,51.39
2019-02-25T21:43:47.290Z,51.30
2019-02-25T21:46:35.172Z,51.28
2019-02-25T21:49:26.752Z,51.68
2019-02-25T21:52:13.648Z,52.00
2019-02-25T21:55:02.633Z,51.43
2019-02-25T21:57:49.581Z,50.84
2019-02-25T22:00:38.633Z,50.67
2019-02-25T22:03:26.068Z,50.89
2019-02-25T22:06:13.902Z,51.28
2019-02-25T22:09:02.999Z,51.36
2019-02-25T22:11:50.695Z,51.21
2019-02-25T22:14:38.225Z,51.15
2019-02-25T22:17:25.135Z,51.14
2019-02-25T22:20:17.081Z,51.11
2019-02-25T22:23:08.285Z,51.67
2019-02-25T22:25:56.117Z,51.60
2019-02-25T22:28:43.918Z,52.04
2019-02-25T22:31:32.975Z,51.95
2019-02-25T22:34:22.973Z,51.74
2019-02-25T22:37:12.488Z,51.67
2019-02-25T22:39:58.354Z,51.51
2019-02-25T22:42:47.868Z,51.48
2019-02-25T22:45:37.535Z,51.97
2019-02-25T22:48:24.311Z,52.25
2019-02-25T22:51:11.530Z,52.61
2019-02-25T22:53:59.265Z,52.77
2019-02-25T22:56:46.789Z,52.89
2019-02-25T22:59:35.486Z,52.91
2019-02-25T23:02:25.409Z,52.31
2019-02-25T23:05:14.384Z,51.96
2019-02-25T23:08:01.504Z,51.55
2019-02-25T23:10:49.833Z,51.81
2019-02-25T23:13:37.989Z,53.79
2019-02-25T23:16:26.129Z,54.29
2019-02-25T23:19:15.678Z,53.60
2019-02-25T23:22:03.025Z,52.61
2019-02-25T23:24:50.863Z,52.70
2019-02-25T23:27:38.955Z,52.73
2019-02-25T23:30:26.834Z,53.05
2019-02-25T23:33:16.771Z,52.61
2019-02-25T23:36:03.616Z,52.66
2019-02-25T23:38:53.034Z,52.65
2019-02-25T23:41:41.562Z,52.80
2019-02-25T23:44:29.996Z,53.07
2019-02-25T23:47:17.421Z,53.24
2019-02-25T23:50:08.837Z,54.43
2019-02-25T23:52:56.489Z,53.94
2019-02-25T23:55:47.160Z,55.51
2019-02-25T23:58:32.548Z,54.49
